East Texas Regional Airport
KGGG : now visible

Airfield :











YOU CAN JOIN US ON...

 
LOGIN :

Register | Disclaimer

   EN    FR    IT 

 









Legend :    VFR   Marginal VFR   IFR   Intensive IFR   Very Intensive IFR
Visi :
Ceiling :
>= 8 km
>= 3000ft
5 to 8 km
1000 to 3000 ft
1500m to 5 km
500 to 1000 ft
800 to 1500m
200 to 500 ft
< 800m
< 200 ft
Symbols :   Thunderstorms  Fog  Heavy snow  Heavy precipitations  Wind > 20 kt






- Airport Elevation : 365 ft
- IATA code : GGG


KGGG - East Texas Regional

CURRENT METAR :
  • 281609Z 32008KT 2SM -RA BR OVC005 12/11 A2985 RMK AO2 P0000 T01220106

EXPIRED METARs :
  • 281553Z 31008KT 2SM -RA BR OVC003 12/11 A2986 RMK AO2 RAE00B17 SLP111 P0007 T01220111
  • 281513Z 29007KT 2 1/2SM BR OVC005 12/11 A2987 RMK AO2 RAE00 CIG 003V009 P0000 T01220111
  • 281453Z 33007KT 2 1/2SM -RA BR OVC004 12/11 A2987 RMK AO2 SLP113 P0000 60005 T01220111 53002
  • 281353Z 35006KT 1SM -RA BR OVC003 12/11 A2985 RMK AO2 LTG DSNT SW RAE01B17 SLP109 P0001 T01170111 RVRNO

TAF KGGG
Valid from the 28 at 12:00 until the 29 at 12:00 UTC


281138Z 2812/2912 05004KT 3SM SHRA BR OVC003
FM281500 04006KT 3SM TSRA BR OVC003CB
FM281800 32007KT 3SM SHRA BR OVC005
FM290200 28012KT 3SM -DZ BR OVC005
FM290400 28012KT P6SM OVC010
FM290800 26011KT P6SM OVC015
KZFW FIR / North America



MET'MAP, your aeronautical weather chart ! - Copyright ORBIFLY December 2007 - Disclaimer

ORBIFLY MET'MAP TEAM :

Programming & Development : Alexandra Zaïnal
Concept & original design : Baudouin d'Aumeries
Assistance for programming : Marc-Olivier Méhu
Technical & hardware support : Manuel Goepfert

Contact : metmap@orbifly.com




SOURCES & CREDITS :

   NOAA       Earth
Advisory